sensor_id;sensor_type;location;lat;lon;timestamp;temperature;humidity
46458;DHT22;32155;54.076;12.092;2023-03-23T00:02:38;10.70;99.90
46458;DHT22;32155;54.076;12.092;2023-03-23T00:05:05;10.70;99.90
46458;DHT22;32155;54.076;12.092;2023-03-23T00:07:33;10.80;99.90
46458;DHT22;32155;54.076;12.092;2023-03-23T00:09:59;10.80;99.90
46458;DHT22;32155;54.076;12.092;2023-03-23T00:12:29;10.80;99.90
46458;DHT22;32155;54.076;12.092;2023-03-23T00:15:08;10.80;99.90
46458;DHT22;32155;54.076;12.092;2023-03-23T00:17:38;10.70;99.90
46458;DHT22;32155;54.076;12.092;2023-03-23T00:20:06;10.80;99.90
46458;DHT22;32155;54.076;12.092;2023-03-23T00:22:32;10.80;99.90
46458;DHT22;32155;54.076;12.092;2023-03-23T00:25:06;10.80;99.90
46458;DHT22;32155;54.076;12.092;2023-03-23T00:27:33;10.80;99.90
46458;DHT22;32155;54.076;12.092;2023-03-23T00:30:04;10.70;99.90
46458;DHT22;32155;54.076;12.092;2023-03-23T00:32:30;10.70;99.90
46458;DHT22;32155;54.076;12.092;2023-03-23T00:34:58;10.60;99.90
46458;DHT22;32155;54.076;12.092;2023-03-23T00:37:26;10.50;99.90
46458;DHT22;32155;54.076;12.092;2023-03-23T00:39:52;10.50;99.90
46458;DHT22;32155;54.076;12.092;2023-03-23T00:42:23;10.50;99.90
46458;DHT22;32155;54.076;12.092;2023-03-23T00:44:48;10.40;99.90
46458;DHT22;32155;54.076;12.092;2023-03-23T00:47:15;10.40;99.90
46458;DHT22;32155;54.076;12.092;2023-03-23T00:49:42;10.40;99.90
46458;DHT22;32155;54.076;12.092;2023-03-23T00:52:11;10.40;99.90
46458;DHT22;32155;54.076;12.092;2023-03-23T00:54:37;10.40;99.90
46458;DHT22;32155;54.076;12.092;2023-03-23T00:57:03;10.40;99.90
46458;DHT22;32155;54.076;12.092;2023-03-23T00:59:29;10.30;99.90
46458;DHT22;32155;54.076;12.092;2023-03-23T01:01:56;10.20;99.90
46458;DHT22;32155;54.076;12.092;2023-03-23T01:04:21;10.30;99.90
46458;DHT22;32155;54.076;12.092;2023-03-23T01:06:49;10.20;99.90
46458;DHT22;32155;54.076;12.092;2023-03-23T01:09:16;10.20;99.90
46458;DHT22;32155;54.076;12.092;2023-03-23T01:11:45;10.10;99.90
46458;DHT22;32155;54.076;12.092;2023-03-23T01:14:13;10.20;99.90
46458;DHT22;32155;54.076;12.092;2023-03-23T01:16:42;10.20;99.90
46458;DHT22;32155;54.076;12.092;2023-03-23T01:19:08;10.10;99.90
46458;DHT22;32155;54.076;12.092;2023-03-23T01:21:34;10.10;99.90
46458;DHT22;32155;54.076;12.092;2023-03-23T01:24:00;10.10;99.90
46458;DHT22;32155;54.076;12.092;2023-03-23T01:26:27;10.10;99.90
46458;DHT22;32155;54.076;12.092;2023-03-23T01:28:55;10.10;99.90
46458;DHT22;32155;54.076;12.092;2023-03-23T01:31:25;10.10;99.90
46458;DHT22;32155;54.076;12.092;2023-03-23T01:33:52;10.20;99.90
46458;DHT22;32155;54.076;12.092;2023-03-23T01:36:20;10.20;99.90
46458;DHT22;32155;54.076;12.092;2023-03-23T01:38:49;10.20;99.90
46458;DHT22;32155;54.076;12.092;2023-03-23T01:41:17;10.10;99.90
46458;DHT22;32155;54.076;12.092;2023-03-23T01:46:25;10.10;99.90
46458;DHT22;32155;54.076;12.092;2023-03-23T01:48:50;10.10;99.90
46458;DHT22;32155;54.076;12.092;2023-03-23T01:51:17;10.10;99.90
46458;DHT22;32155;54.076;12.092;2023-03-23T01:53:52;10.10;99.90
46458;DHT22;32155;54.076;12.092;2023-03-23T01:56:24;10.00;99.90
46458;DHT22;32155;54.076;12.092;2023-03-23T01:58:53;10.10;99.90
46458;DHT22;32155;54.076;12.092;2023-03-23T02:01:21;10.10;99.90
46458;DHT22;32155;54.076;12.092;2023-03-23T02:03:47;10.10;99.90
46458;DHT22;32155;54.076;12.092;2023-03-23T02:06:14;10.00;99.90
46458;DHT22;32155;54.076;12.092;2023-03-23T02:08:41;10.00;99.90
46458;DHT22;32155;54.076;12.092;2023-03-23T02:11:27;10.00;99.90
46458;DHT22;32155;54.076;12.092;2023-03-23T02:13:55;10.00;99.90
46458;DHT22;32155;54.076;12.092;2023-03-23T02:27:07;10.00;99.90
46458;DHT22;32155;54.076;12.092;2023-03-23T02:35:39;10.00;99.90
46458;DHT22;32155;54.076;12.092;2023-03-23T02:38:15;10.00;99.90
46458;DHT22;32155;54.076;12.092;2023-03-23T02:40:45;10.00;99.90
46458;DHT22;32155;54.076;12.092;2023-03-23T02:43:15;10.00;99.90
46458;DHT22;32155;54.076;12.092;2023-03-23T02:45:43;10.00;99.90
46458;DHT22;32155;54.076;12.092;2023-03-23T02:48:11;9.90;99.90
46458;DHT22;32155;54.076;12.092;2023-03-23T02:50:39;10.00;99.90
46458;DHT22;32155;54.076;12.092;2023-03-23T02:53:09;9.90;99.90
46458;DHT22;32155;54.076;12.092;2023-03-23T02:55:39;10.00;99.90
46458;DHT22;32155;54.076;12.092;2023-03-23T02:58:09;9.90;99.90
46458;DHT22;32155;54.076;12.092;2023-03-23T03:00:38;9.90;99.90
46458;DHT22;32155;54.076;12.092;2023-03-23T03:03:08;9.90;99.90
46458;DHT22;32155;54.076;12.092;2023-03-23T03:11:14;9.90;99.90
46458;DHT22;32155;54.076;12.092;2023-03-23T03:18:47;10.00;99.90
46458;DHT22;32155;54.076;12.092;2023-03-23T03:21:16;9.90;99.90
46458;DHT22;32155;54.076;12.092;2023-03-23T03:23:44;9.90;99.90
46458;DHT22;32155;54.076;12.092;2023-03-23T03:26:13;9.80;99.90
46458;DHT22;32155;54.076;12.092;2023-03-23T03:28:45;9.90;99.90
46458;DHT22;32155;54.076;12.092;2023-03-23T03:31:15;9.90;99.90
46458;DHT22;32155;54.076;12.092;2023-03-23T03:33:42;9.80;99.90
46458;DHT22;32155;54.076;12.092;2023-03-23T03:36:15;9.70;99.90
46458;DHT22;32155;54.076;12.092;2023-03-23T03:38:42;9.70;99.90
46458;DHT22;32155;54.076;12.092;2023-03-23T03:41:11;9.70;99.90
46458;DHT22;32155;54.076;12.092;2023-03-23T03:43:37;9.60;99.90
46458;DHT22;32155;54.076;12.092;2023-03-23T03:46:05;9.70;99.90
46458;DHT22;32155;54.076;12.092;2023-03-23T03:48:31;9.80;99.90
46458;DHT22;32155;54.076;12.092;2023-03-23T03:50:56;9.80;99.90
46458;DHT22;32155;54.076;12.092;2023-03-23T03:53:26;9.80;99.90
46458;DHT22;32155;54.076;12.092;2023-03-23T03:55:52;9.80;99.90
46458;DHT22;32155;54.076;12.092;2023-03-23T03:58:21;9.80;99.90
46458;DHT22;32155;54.076;12.092;2023-03-23T04:01:10;9.80;99.90
46458;DHT22;32155;54.076;12.092;2023-03-23T04:03:44;9.80;99.90
46458;DHT22;32155;54.076;12.092;2023-03-23T04:06:16;9.80;99.90
46458;DHT22;32155;54.076;12.092;2023-03-23T04:09:06;9.80;99.90
46458;DHT22;32155;54.076;12.092;2023-03-23T04:11:37;9.80;99.90
46458;DHT22;32155;54.076;12.092;2023-03-23T04:14:09;9.80;99.90
46458;DHT22;32155;54.076;12.092;2023-03-23T04:16:37;9.70;99.90
46458;DHT22;32155;54.076;12.092;2023-03-23T04:19:07;9.70;99.90
46458;DHT22;32155;54.076;12.092;2023-03-23T04:21:34;9.70;99.90
46458;DHT22;32155;54.076;12.092;2023-03-23T04:24:00;9.80;99.90
46458;DHT22;32155;54.076;12.092;2023-03-23T04:26:27;9.80;99.90
46458;DHT22;32155;54.076;12.092;2023-03-23T04:28:55;9.80;99.90
46458;DHT22;32155;54.076;12.092;2023-03-23T04:31:22;9.80;99.90
46458;DHT22;32155;54.076;12.092;2023-03-23T04:33:54;9.80;99.90
46458;DHT22;32155;54.076;12.092;2023-03-23T04:36:32;9.80;99.90
46458;DHT22;32155;54.076;12.092;2023-03-23T04:39:12;9.80;99.90
46458;DHT22;32155;54.076;12.092;2023-03-23T04:41:39;9.80;99.90
46458;DHT22;32155;54.076;12.092;2023-03-23T04:44:09;9.80;99.90
46458;DHT22;32155;54.076;12.092;2023-03-23T04:46:40;9.80;99.90
46458;DHT22;32155;54.076;12.092;2023-03-23T04:49:12;9.70;99.90
46458;DHT22;32155;54.076;12.092;2023-03-23T04:51:40;9.80;99.90
46458;DHT22;32155;54.076;12.092;2023-03-23T04:54:10;9.80;99.90
46458;DHT22;32155;54.076;12.092;2023-03-23T04:56:41;9.80;99.90
46458;DHT22;32155;54.076;12.092;2023-03-23T04:59:15;9.80;99.90
46458;DHT22;32155;54.076;12.092;2023-03-23T05:01:50;9.80;99.90
46458;DHT22;32155;54.076;12.092;2023-03-23T05:04:19;9.80;99.90
46458;DHT22;32155;54.076;12.092;2023-03-23T05:06:47;9.80;99.90
46458;DHT22;32155;54.076;12.092;2023-03-23T05:09:15;9.80;99.90
46458;DHT22;32155;54.076;12.092;2023-03-23T05:11:42;9.80;99.90
46458;DHT22;32155;54.076;12.092;2023-03-23T05:14:08;9.80;99.90
46458;DHT22;32155;54.076;12.092;2023-03-23T05:16:35;9.90;99.90
46458;DHT22;32155;54.076;12.092;2023-03-23T05:19:11;9.90;99.90
46458;DHT22;32155;54.076;12.092;2023-03-23T05:21:37;9.90;99.90
46458;DHT22;32155;54.076;12.092;2023-03-23T05:24:06;9.90;99.90
46458;DHT22;32155;54.076;12.092;2023-03-23T05:26:32;9.90;99.90
46458;DHT22;32155;54.076;12.092;2023-03-23T05:29:06;9.90;99.90
46458;DHT22;32155;54.076;12.092;2023-03-23T05:31:37;9.90;99.90
46458;DHT22;32155;54.076;12.092;2023-03-23T05:34:08;9.90;99.90
46458;DHT22;32155;54.076;12.092;2023-03-23T05:36:35;9.90;99.90
46458;DHT22;32155;54.076;12.092;2023-03-23T05:39:01;9.90;99.90
46458;DHT22;32155;54.076;12.092;2023-03-23T05:41:31;10.00;99.90
46458;DHT22;32155;54.076;12.092;2023-03-23T05:43:58;10.00;99.90
46458;DHT22;32155;54.076;12.092;2023-03-23T05:46:24;10.00;99.90
46458;DHT22;32155;54.076;12.092;2023-03-23T05:48:51;10.00;99.90
46458;DHT22;32155;54.076;12.092;2023-03-23T05:51:17;10.00;99.90
46458;DHT22;32155;54.076;12.092;2023-03-23T05:53:44;10.00;99.90
46458;DHT22;32155;54.076;12.092;2023-03-23T05:56:09;10.10;99.90
46458;DHT22;32155;54.076;12.092;2023-03-23T05:58:35;10.10;99.90
46458;DHT22;32155;54.076;12.092;2023-03-23T06:01:01;10.20;99.90
46458;DHT22;32155;54.076;12.092;2023-03-23T06:03:26;10.20;99.90
46458;DHT22;32155;54.076;12.092;2023-03-23T06:05:52;10.20;99.90
46458;DHT22;32155;54.076;12.092;2023-03-23T06:08:21;10.30;99.90
46458;DHT22;32155;54.076;12.092;2023-03-23T06:10:48;10.30;99.90
46458;DHT22;32155;54.076;12.092;2023-03-23T06:13:14;10.30;99.90
46458;DHT22;32155;54.076;12.092;2023-03-23T06:15:40;10.30;99.90
46458;DHT22;32155;54.076;12.092;2023-03-23T06:18:06;10.30;99.90
46458;DHT22;32155;54.076;12.092;2023-03-23T06:20:32;10.30;99.90
46458;DHT22;32155;54.076;12.092;2023-03-23T06:22:58;10.30;99.90
46458;DHT22;32155;54.076;12.092;2023-03-23T06:25:24;10.40;99.90
46458;DHT22;32155;54.076;12.092;2023-03-23T06:27:50;10.40;99.90
46458;DHT22;32155;54.076;12.092;2023-03-23T06:30:17;10.40;99.90
46458;DHT22;32155;54.076;12.092;2023-03-23T06:32:43;10.40;99.90
46458;DHT22;32155;54.076;12.092;2023-03-23T06:35:12;10.40;99.90
46458;DHT22;32155;54.076;12.092;2023-03-23T06:37:41;10.40;99.90
46458;DHT22;32155;54.076;12.092;2023-03-23T06:40:07;10.40;99.90
46458;DHT22;32155;54.076;12.092;2023-03-23T06:42:33;10.50;99.90
46458;DHT22;32155;54.076;12.092;2023-03-23T06:45:02;10.50;99.90
46458;DHT22;32155;54.076;12.092;2023-03-23T06:47:28;10.60;99.90
46458;DHT22;32155;54.076;12.092;2023-03-23T06:49:57;10.60;99.90
46458;DHT22;32155;54.076;12.092;2023-03-23T06:52:23;10.60;99.90
46458;DHT22;32155;54.076;12.092;2023-03-23T06:54:52;10.60;99.90
46458;DHT22;32155;54.076;12.092;2023-03-23T06:57:18;10.60;99.90
46458;DHT22;32155;54.076;12.092;2023-03-23T06:59:45;10.70;99.90
46458;DHT22;32155;54.076;12.092;2023-03-23T07:02:13;10.70;99.90
46458;DHT22;32155;54.076;12.092;2023-03-23T07:04:40;10.80;99.90
46458;DHT22;32155;54.076;12.092;2023-03-23T07:07:08;10.70;99.90
46458;DHT22;32155;54.076;12.092;2023-03-23T07:09:34;10.90;99.90
46458;DHT22;32155;54.076;12.092;2023-03-23T07:12:02;10.90;99.90
46458;DHT22;32155;54.076;12.092;2023-03-23T07:14:30;10.90;99.90
46458;DHT22;32155;54.076;12.092;2023-03-23T07:16:58;10.90;99.90
46458;DHT22;32155;54.076;12.092;2023-03-23T07:19:26;11.00;99.90
46458;DHT22;32155;54.076;12.092;2023-03-23T07:21:52;10.90;99.90
46458;DHT22;32155;54.076;12.092;2023-03-23T07:24:22;11.00;99.90
46458;DHT22;32155;54.076;12.092;2023-03-23T07:26:50;11.10;99.90
46458;DHT22;32155;54.076;12.092;2023-03-23T07:29:18;11.30;99.90
46458;DHT22;32155;54.076;12.092;2023-03-23T07:31:44;11.30;99.90
46458;DHT22;32155;54.076;12.092;2023-03-23T07:34:10;11.50;99.90
46458;DHT22;32155;54.076;12.092;2023-03-23T07:36:36;11.70;99.90
46458;DHT22;32155;54.076;12.092;2023-03-23T07:39:03;11.90;99.90
46458;DHT22;32155;54.076;12.092;2023-03-23T07:41:31;11.90;99.90
46458;DHT22;32155;54.076;12.092;2023-03-23T07:43:57;11.70;99.90
46458;DHT22;32155;54.076;12.092;2023-03-23T07:46:23;11.70;99.90
46458;DHT22;32155;54.076;12.092;2023-03-23T07:48:48;11.70;99.90
46458;DHT22;32155;54.076;12.092;2023-03-23T07:51:15;12.00;99.90
46458;DHT22;32155;54.076;12.092;2023-03-23T07:53:44;12.40;99.90
46458;DHT22;32155;54.076;12.092;2023-03-23T07:56:36;12.80;99.90
46458;DHT22;32155;54.076;12.092;2023-03-23T07:59:26;12.80;99.90
46458;DHT22;32155;54.076;12.092;2023-03-23T08:01:52;12.40;99.90
46458;DHT22;32155;54.076;12.092;2023-03-23T08:04:18;12.10;99.90
46458;DHT22;32155;54.076;12.092;2023-03-23T08:06:43;12.00;99.90
46458;DHT22;32155;54.076;12.092;2023-03-23T08:09:09;12.10;99.90
46458;DHT22;32155;54.076;12.092;2023-03-23T08:11:35;12.60;99.90
46458;DHT22;32155;54.076;12.092;2023-03-23T08:14:04;12.90;99.90
46458;DHT22;32155;54.076;12.092;2023-03-23T08:16:31;13.00;99.90
46458;DHT22;32155;54.076;12.092;2023-03-23T08:18:57;13.20;99.90
46458;DHT22;32155;54.076;12.092;2023-03-23T08:21:25;13.40;99.90
46458;DHT22;32155;54.076;12.092;2023-03-23T08:23:54;13.50;99.90
46458;DHT22;32155;54.076;12.092;2023-03-23T08:26:22;15.60;99.90
46458;DHT22;32155;54.076;12.092;2023-03-23T08:28:48;16.60;99.90
46458;DHT22;32155;54.076;12.092;2023-03-23T08:31:14;16.20;99.90
46458;DHT22;32155;54.076;12.092;2023-03-23T08:33:41;16.70;99.90
46458;DHT22;32155;54.076;12.092;2023-03-23T08:36:07;18.90;99.90
46458;DHT22;32155;54.076;12.092;2023-03-23T08:38:34;19.70;99.90
46458;DHT22;32155;54.076;12.092;2023-03-23T08:41:02;19.50;99.90
46458;DHT22;32155;54.076;12.092;2023-03-23T08:43:31;18.80;99.90
46458;DHT22;32155;54.076;12.092;2023-03-23T08:45:57;16.70;99.90
46458;DHT22;32155;54.076;12.092;2023-03-23T08:48:23;15.70;99.90
46458;DHT22;32155;54.076;12.092;2023-03-23T08:50:50;14.90;99.90
46458;DHT22;32155;54.076;12.092;2023-03-23T08:53:18;14.40;99.90
46458;DHT22;32155;54.076;12.092;2023-03-23T08:55:43;14.70;99.90
46458;DHT22;32155;54.076;12.092;2023-03-23T08:58:09;15.10;99.90
46458;DHT22;32155;54.076;12.092;2023-03-23T09:00:38;15.30;99.90
46458;DHT22;32155;54.076;12.092;2023-03-23T09:03:04;17.90;99.90
46458;DHT22;32155;54.076;12.092;2023-03-23T09:05:33;18.60;99.90
46458;DHT22;32155;54.076;12.092;2023-03-23T09:07:58;17.80;99.90
46458;DHT22;32155;54.076;12.092;2023-03-23T09:10:26;17.40;99.90
46458;DHT22;32155;54.076;12.092;2023-03-23T09:12:56;16.90;99.90
46458;DHT22;32155;54.076;12.092;2023-03-23T09:15:24;15.90;99.90
46458;DHT22;32155;54.076;12.092;2023-03-23T09:17:52;15.00;99.90
46458;DHT22;32155;54.076;12.092;2023-03-23T09:20:21;16.60;99.90
46458;DHT22;32155;54.076;12.092;2023-03-23T09:22:51;17.80;99.90
46458;DHT22;32155;54.076;12.092;2023-03-23T09:25:19;18.00;99.90
46458;DHT22;32155;54.076;12.092;2023-03-23T09:27:53;17.00;99.90
46458;DHT22;32155;54.076;12.092;2023-03-23T09:30:23;15.70;99.90
46458;DHT22;32155;54.076;12.092;2023-03-23T09:32:53;16.30;99.90
46458;DHT22;32155;54.076;12.092;2023-03-23T09:35:19;16.80;99.90
46458;DHT22;32155;54.076;12.092;2023-03-23T09:37:47;15.70;99.90
46458;DHT22;32155;54.076;12.092;2023-03-23T09:40:18;15.30;99.90
46458;DHT22;32155;54.076;12.092;2023-03-23T09:48:29;14.10;99.90
46458;DHT22;32155;54.076;12.092;2023-03-23T09:51:04;13.70;99.90
46458;DHT22;32155;54.076;12.092;2023-03-23T09:53:38;13.60;99.90
46458;DHT22;32155;54.076;12.092;2023-03-23T09:56:11;13.60;99.90
46458;DHT22;32155;54.076;12.092;2023-03-23T09:58:55;13.40;99.90
46458;DHT22;32155;54.076;12.092;2023-03-23T10:01:34;12.60;99.90
46458;DHT22;32155;54.076;12.092;2023-03-23T10:07:05;11.50;99.90
46458;DHT22;32155;54.076;12.092;2023-03-23T10:09:31;11.50;99.90
46458;DHT22;32155;54.076;12.092;2023-03-23T10:12:03;11.40;99.90
46458;DHT22;32155;54.076;12.092;2023-03-23T10:17:28;11.60;99.90
46458;DHT22;32155;54.076;12.092;2023-03-23T10:20:17;11.70;99.90
46458;DHT22;32155;54.076;12.092;2023-03-23T10:23:24;11.80;99.90
46458;DHT22;32155;54.076;12.092;2023-03-23T10:28:51;11.70;99.90
46458;DHT22;32155;54.076;12.092;2023-03-23T10:31:43;11.80;99.90
46458;DHT22;32155;54.076;12.092;2023-03-23T10:34:13;11.90;99.90
46458;DHT22;32155;54.076;12.092;2023-03-23T10:36:56;12.20;99.90
46458;DHT22;32155;54.076;12.092;2023-03-23T10:39:30;13.10;99.90
46458;DHT22;32155;54.076;12.092;2023-03-23T10:41:56;14.20;99.90
46458;DHT22;32155;54.076;12.092;2023-03-23T10:44:25;15.00;99.90
46458;DHT22;32155;54.076;12.092;2023-03-23T10:47:00;15.80;99.90
46458;DHT22;32155;54.076;12.092;2023-03-23T10:49:42;16.60;99.90
46458;DHT22;32155;54.076;12.092;2023-03-23T10:52:16;17.70;99.90
46458;DHT22;32155;54.076;12.092;2023-03-23T10:54:57;17.30;99.90
46458;DHT22;32155;54.076;12.092;2023-03-23T10:57:26;16.10;99.90
46458;DHT22;32155;54.076;12.092;2023-03-23T11:05:40;15.00;99.90
46458;DHT22;32155;54.076;12.092;2023-03-23T11:08:29;14.80;99.90
46458;DHT22;32155;54.076;12.092;2023-03-23T11:13:41;16.50;99.90
46458;DHT22;32155;54.076;12.092;2023-03-23T11:16:10;16.50;99.90
46458;DHT22;32155;54.076;12.092;2023-03-23T11:18:41;16.30;99.90
46458;DHT22;32155;54.076;12.092;2023-03-23T11:21:12;15.90;99.90
46458;DHT22;32155;54.076;12.092;2023-03-23T11:23:57;16.30;99.90
46458;DHT22;32155;54.076;12.092;2023-03-23T11:26:31;16.60;99.90
46458;DHT22;32155;54.076;12.092;2023-03-23T11:31:46;16.70;99.90
46458;DHT22;32155;54.076;12.092;2023-03-23T11:37:06;16.30;99.90
46458;DHT22;32155;54.076;12.092;2023-03-23T11:39:35;17.00;99.90
46458;DHT22;32155;54.076;12.092;2023-03-23T11:42:20;17.40;99.90
46458;DHT22;32155;54.076;12.092;2023-03-23T11:44:46;17.50;99.90
46458;DHT22;32155;54.076;12.092;2023-03-23T11:50:26;18.30;99.90
46458;DHT22;32155;54.076;12.092;2023-03-23T11:53:15;21.60;99.90
46458;DHT22;32155;54.076;12.092;2023-03-23T11:55:58;24.00;99.90
46458;DHT22;32155;54.076;12.092;2023-03-23T11:58:32;22.10;99.90
46458;DHT22;32155;54.076;12.092;2023-03-23T12:17:37;19.00;99.90
46458;DHT22;32155;54.076;12.092;2023-03-23T12:20:19;18.00;99.90
46458;DHT22;32155;54.076;12.092;2023-03-23T12:25:33;17.10;99.90
46458;DHT22;32155;54.076;12.092;2023-03-23T12:36:20;16.10;99.90
46458;DHT22;32155;54.076;12.092;2023-03-23T12:42:01;15.30;99.90
46458;DHT22;32155;54.076;12.092;2023-03-23T12:44:55;15.40;99.90
46458;DHT22;32155;54.076;12.092;2023-03-23T12:47:31;15.10;99.90
46458;DHT22;32155;54.076;12.092;2023-03-23T12:50:21;15.10;99.90
46458;DHT22;32155;54.076;12.092;2023-03-23T12:58:24;15.20;99.90
46458;DHT22;32155;54.076;12.092;2023-03-23T13:01:08;15.20;99.90
46458;DHT22;32155;54.076;12.092;2023-03-23T13:03:47;14.70;99.90
46458;DHT22;32155;54.076;12.092;2023-03-23T13:06:31;14.60;99.90
46458;DHT22;32155;54.076;12.092;2023-03-23T13:09:20;14.60;99.90
46458;DHT22;32155;54.076;12.092;2023-03-23T13:11:49;14.50;99.90
46458;DHT22;32155;54.076;12.092;2023-03-23T13:28:04;14.60;99.90
46458;DHT22;32155;54.076;12.092;2023-03-23T13:30:31;14.60;99.90
46458;DHT22;32155;54.076;12.092;2023-03-23T13:33:10;14.60;99.90
46458;DHT22;32155;54.076;12.092;2023-03-23T13:35:41;14.80;99.90
46458;DHT22;32155;54.076;12.092;2023-03-23T13:38:28;15.20;99.90
46458;DHT22;32155;54.076;12.092;2023-03-23T13:40:57;15.20;99.90
46458;DHT22;32155;54.076;12.092;2023-03-23T13:43:32;14.90;99.90
46458;DHT22;32155;54.076;12.092;2023-03-23T13:49:03;14.50;99.90
46458;DHT22;32155;54.076;12.092;2023-03-23T13:51:51;14.40;99.90
46458;DHT22;32155;54.076;12.092;2023-03-23T13:54:41;14.20;99.90
46458;DHT22;32155;54.076;12.092;2023-03-23T13:57:25;14.10;99.90
46458;DHT22;32155;54.076;12.092;2023-03-23T13:59:57;14.30;99.90
46458;DHT22;32155;54.076;12.092;2023-03-23T14:02:39;14.30;99.90
46458;DHT22;32155;54.076;12.092;2023-03-23T14:07:55;14.30;99.90
46458;DHT22;32155;54.076;12.092;2023-03-23T14:10:21;15.10;99.90
46458;DHT22;32155;54.076;12.092;2023-03-23T14:12:50;15.50;99.90
46458;DHT22;32155;54.076;12.092;2023-03-23T14:15:17;15.40;99.90
46458;DHT22;32155;54.076;12.092;2023-03-23T14:17:47;15.10;99.90
46458;DHT22;32155;54.076;12.092;2023-03-23T14:20:36;14.80;99.90
46458;DHT22;32155;54.076;12.092;2023-03-23T14:23:15;14.60;99.90
46458;DHT22;32155;54.076;12.092;2023-03-23T14:25:42;14.60;99.90
46458;DHT22;32155;54.076;12.092;2023-03-23T14:28:31;14.40;99.90
46458;DHT22;32155;54.076;12.092;2023-03-23T14:31:02;14.30;99.90
46458;DHT22;32155;54.076;12.092;2023-03-23T14:33:28;14.20;99.90
46458;DHT22;32155;54.076;12.092;2023-03-23T14:35:56;14.40;99.90
46458;DHT22;32155;54.076;12.092;2023-03-23T14:38:23;15.00;99.90
46458;DHT22;32155;54.076;12.092;2023-03-23T14:40:54;15.30;99.90
46458;DHT22;32155;54.076;12.092;2023-03-23T14:43:36;17.10;99.90
46458;DHT22;32155;54.076;12.092;2023-03-23T14:46:07;18.90;99.90
46458;DHT22;32155;54.076;12.092;2023-03-23T14:48:38;19.90;99.90
46458;DHT22;32155;54.076;12.092;2023-03-23T14:51:05;20.10;99.90
46458;DHT22;32155;54.076;12.092;2023-03-23T14:53:36;19.00;99.90
46458;DHT22;32155;54.076;12.092;2023-03-23T14:56:10;18.10;99.90
46458;DHT22;32155;54.076;12.092;2023-03-23T14:58:46;17.70;99.90
46458;DHT22;32155;54.076;12.092;2023-03-23T15:01:17;18.20;99.90
46458;DHT22;32155;54.076;12.092;2023-03-23T15:03:53;17.70;99.90
46458;DHT22;32155;54.076;12.092;2023-03-23T15:06:21;18.50;99.90
46458;DHT22;32155;54.076;12.092;2023-03-23T15:08:49;19.00;99.90
46458;DHT22;32155;54.076;12.092;2023-03-23T15:13:48;17.00;99.90
46458;DHT22;32155;54.076;12.092;2023-03-23T15:16:18;16.70;99.90
46458;DHT22;32155;54.076;12.092;2023-03-23T15:18:57;16.50;99.90
46458;DHT22;32155;54.076;12.092;2023-03-23T15:21:35;16.30;99.90
46458;DHT22;32155;54.076;12.092;2023-03-23T15:24:27;15.90;99.90
46458;DHT22;32155;54.076;12.092;2023-03-23T15:27:10;15.20;99.90
46458;DHT22;32155;54.076;12.092;2023-03-23T15:29:50;14.70;99.90
46458;DHT22;32155;54.076;12.092;2023-03-23T15:32:38;14.50;99.90
46458;DHT22;32155;54.076;12.092;2023-03-23T15:35:12;14.30;99.90
46458;DHT22;32155;54.076;12.092;2023-03-23T15:37:48;14.20;99.90
46458;DHT22;32155;54.076;12.092;2023-03-23T15:40:19;14.20;99.90
46458;DHT22;32155;54.076;12.092;2023-03-23T15:42:46;14.10;99.90
46458;DHT22;32155;54.076;12.092;2023-03-23T15:45:27;13.80;99.90
46458;DHT22;32155;54.076;12.092;2023-03-23T15:48:03;13.60;99.90
46458;DHT22;32155;54.076;12.092;2023-03-23T15:56:04;13.60;99.90
46458;DHT22;32155;54.076;12.092;2023-03-23T15:58:36;13.60;99.90
46458;DHT22;32155;54.076;12.092;2023-03-23T16:06:33;13.30;99.90
46458;DHT22;32155;54.076;12.092;2023-03-23T16:08:59;13.30;99.90
46458;DHT22;32155;54.076;12.092;2023-03-23T16:11:27;13.30;99.90
46458;DHT22;32155;54.076;12.092;2023-03-23T16:13:53;13.20;99.90
46458;DHT22;32155;54.076;12.092;2023-03-23T16:16:30;13.20;99.90
46458;DHT22;32155;54.076;12.092;2023-03-23T16:18:56;13.10;99.90
46458;DHT22;32155;54.076;12.092;2023-03-23T16:21:24;13.00;99.90
46458;DHT22;32155;54.076;12.092;2023-03-23T16:23:51;12.80;99.90
46458;DHT22;32155;54.076;12.092;2023-03-23T16:26:17;12.70;99.90
46458;DHT22;32155;54.076;12.092;2023-03-23T16:28:45;12.60;99.90
46458;DHT22;32155;54.076;12.092;2023-03-23T16:31:14;12.70;99.90
46458;DHT22;32155;54.076;12.092;2023-03-23T16:33:39;12.90;99.90
46458;DHT22;32155;54.076;12.092;2023-03-23T16:36:06;13.00;99.90
46458;DHT22;32155;54.076;12.092;2023-03-23T16:38:32;12.90;99.90
46458;DHT22;32155;54.076;12.092;2023-03-23T16:40:57;12.90;99.90
46458;DHT22;32155;54.076;12.092;2023-03-23T16:43:26;12.70;99.90
46458;DHT22;32155;54.076;12.092;2023-03-23T16:45:54;12.60;99.90
46458;DHT22;32155;54.076;12.092;2023-03-23T16:48:21;12.50;99.90
46458;DHT22;32155;54.076;12.092;2023-03-23T16:50:47;12.30;99.90
46458;DHT22;32155;54.076;12.092;2023-03-23T16:53:14;12.20;99.90
46458;DHT22;32155;54.076;12.092;2023-03-23T16:55:40;12.10;99.90
46458;DHT22;32155;54.076;12.092;2023-03-23T16:58:14;12.00;99.90
46458;DHT22;32155;54.076;12.092;2023-03-23T17:00:40;11.90;99.90
46458;DHT22;32155;54.076;12.092;2023-03-23T17:03:07;11.70;99.90
46458;DHT22;32155;54.076;12.092;2023-03-23T17:05:34;11.50;99.90
46458;DHT22;32155;54.076;12.092;2023-03-23T17:08:03;11.40;99.90
46458;DHT22;32155;54.076;12.092;2023-03-23T17:10:31;11.30;99.90
46458;DHT22;32155;54.076;12.092;2023-03-23T17:13:01;11.40;99.90
46458;DHT22;32155;54.076;12.092;2023-03-23T17:15:27;11.30;99.90
46458;DHT22;32155;54.076;12.092;2023-03-23T17:17:54;11.10;99.90
46458;DHT22;32155;54.076;12.092;2023-03-23T17:20:22;11.10;99.90
46458;DHT22;32155;54.076;12.092;2023-03-23T17:22:48;11.00;99.90
46458;DHT22;32155;54.076;12.092;2023-03-23T17:25:14;10.90;99.90
46458;DHT22;32155;54.076;12.092;2023-03-23T17:27:40;10.80;99.90
46458;DHT22;32155;54.076;12.092;2023-03-23T17:30:08;10.60;99.90
46458;DHT22;32155;54.076;12.092;2023-03-23T17:32:34;10.50;99.90
46458;DHT22;32155;54.076;12.092;2023-03-23T17:35:01;10.40;99.90
46458;DHT22;32155;54.076;12.092;2023-03-23T17:37:26;10.30;99.90
46458;DHT22;32155;54.076;12.092;2023-03-23T17:39:55;10.20;99.90
46458;DHT22;32155;54.076;12.092;2023-03-23T17:42:22;10.20;99.90
46458;DHT22;32155;54.076;12.092;2023-03-23T17:44:48;10.20;99.90
46458;DHT22;32155;54.076;12.092;2023-03-23T17:47:14;10.00;99.90
46458;DHT22;32155;54.076;12.092;2023-03-23T17:49:40;10.10;99.90